Santo Domingo, Dominican Republic
Current Conditions -  °F | °C
As of 3:00 PM on Friday 31 Oct 2014 (Local Time) from MDSD Reporting Station
Few Clouds Few Clouds  
Wind Chill: 90°   Ceiling: Unl
Heat Index: 102°   Visibility: 6mi
Dew Point: 77°   Wind: 7mph
Humidity: 66%   Direction: 180°S
Pressure: 29.8"   Gusts: NA
Location:  18.48°N, 69.91°W
Report Text: MDSD 311900Z 18006KT 9999 FEW020CB FEW022 32/25 Q1009 CB/NE/E/NW
Loading
Personal Weather Stations






























Interactive Weather Map
Tropical Storm Tracking
New forecast layout! Learn more

10-Day Weather Forecast

Advertisements
Track Severe Weather on mobile